sensor_id;sensor_type;location;lat;lon;timestamp;P1;durP1;ratioP1;P2;durP2;ratioP2
52724;SDS011;38621;52.830;6.914;2023-05-17T00:01:42;11.00;;;3.22;;
52724;SDS011;38621;52.830;6.914;2023-05-17T00:04:08;10.88;;;3.47;;
52724;SDS011;38621;52.830;6.914;2023-05-17T00:06:34;9.98;;;3.42;;
52724;SDS011;38621;52.830;6.914;2023-05-17T00:09:00;11.00;;;3.35;;
52724;SDS011;38621;52.830;6.914;2023-05-17T00:11:26;8.65;;;3.53;;
52724;SDS011;38621;52.830;6.914;2023-05-17T00:13:52;13.60;;;3.22;;
52724;SDS011;38621;52.830;6.914;2023-05-17T00:16:18;10.00;;;3.45;;
52724;SDS011;38621;52.830;6.914;2023-05-17T00:18:43;11.35;;;3.35;;
52724;SDS011;38621;52.830;6.914;2023-05-17T00:21:09;7.43;;;2.92;;
52724;SDS011;38621;52.830;6.914;2023-05-17T00:23:35;8.95;;;3.08;;
52724;SDS011;38621;52.830;6.914;2023-05-17T00:26:00;10.98;;;2.80;;
52724;SDS011;38621;52.830;6.914;2023-05-17T00:28:26;8.98;;;2.55;;
52724;SDS011;38621;52.830;6.914;2023-05-17T00:30:52;7.30;;;2.70;;
52724;SDS011;38621;52.830;6.914;2023-05-17T00:33:17;6.95;;;2.42;;
52724;SDS011;38621;52.830;6.914;2023-05-17T00:35:43;5.97;;;2.53;;
52724;SDS011;38621;52.830;6.914;2023-05-17T00:38:09;8.93;;;2.20;;
52724;SDS011;38621;52.830;6.914;2023-05-17T00:40:34;7.25;;;2.40;;
52724;SDS011;38621;52.830;6.914;2023-05-17T00:43:00;7.22;;;2.33;;
52724;SDS011;38621;52.830;6.914;2023-05-17T00:45:26;8.45;;;2.58;;
52724;SDS011;38621;52.830;6.914;2023-05-17T00:47:51;6.53;;;2.50;;
52724;SDS011;38621;52.830;6.914;2023-05-17T00:50:17;9.30;;;2.70;;
52724;SDS011;38621;52.830;6.914;2023-05-17T00:52:43;8.93;;;2.80;;
52724;SDS011;38621;52.830;6.914;2023-05-17T00:55:09;8.85;;;2.60;;
52724;SDS011;38621;52.830;6.914;2023-05-17T00:57:34;7.60;;;2.60;;
52724;SDS011;38621;52.830;6.914;2023-05-17T01:00:00;13.48;;;3.25;;
52724;SDS011;38621;52.830;6.914;2023-05-17T01:02:26;7.25;;;2.38;;
52724;SDS011;38621;52.830;6.914;2023-05-17T01:04:52;9.15;;;2.17;;
52724;SDS011;38621;52.830;6.914;2023-05-17T01:07:18;10.63;;;3.20;;
52724;SDS011;38621;52.830;6.914;2023-05-17T01:09:44;9.10;;;2.08;;
52724;SDS011;38621;52.830;6.914;2023-05-17T01:17:38;7.38;;;2.63;;
52724;SDS011;38621;52.830;6.914;2023-05-17T01:20:30;7.00;;;2.15;;
52724;SDS011;38621;52.830;6.914;2023-05-17T01:28:25;9.30;;;2.53;;
52724;SDS011;38621;52.830;6.914;2023-05-17T01:30:52;6.82;;;2.38;;
52724;SDS011;38621;52.830;6.914;2023-05-17T01:33:21;11.15;;;2.40;;
52724;SDS011;38621;52.830;6.914;2023-05-17T01:35:47;9.07;;;2.45;;
52724;SDS011;38621;52.830;6.914;2023-05-17T01:38:13;5.85;;;2.08;;
52724;SDS011;38621;52.830;6.914;2023-05-17T01:40:40;8.90;;;2.20;;
52724;SDS011;38621;52.830;6.914;2023-05-17T01:45:59;7.45;;;2.05;;
52724;SDS011;38621;52.830;6.914;2023-05-17T01:48:34;13.05;;;2.50;;
52724;SDS011;38621;52.830;6.914;2023-05-17T01:51:03;8.52;;;2.58;;
52724;SDS011;38621;52.830;6.914;2023-05-17T01:53:33;10.82;;;2.30;;
52724;SDS011;38621;52.830;6.914;2023-05-17T01:56:11;9.07;;;2.75;;
52724;SDS011;38621;52.830;6.914;2023-05-17T01:58:44;9.02;;;2.13;;
52724;SDS011;38621;52.830;6.914;2023-05-17T02:01:15;6.82;;;2.75;;
52724;SDS011;38621;52.830;6.914;2023-05-17T02:03:42;8.80;;;2.20;;
52724;SDS011;38621;52.830;6.914;2023-05-17T02:06:11;14.38;;;3.47;;
52724;SDS011;38621;52.830;6.914;2023-05-17T02:08:37;9.15;;;2.45;;
52724;SDS011;38621;52.830;6.914;2023-05-17T02:11:02;8.93;;;2.90;;
52724;SDS011;38621;52.830;6.914;2023-05-17T02:13:28;11.45;;;2.72;;
52724;SDS011;38621;52.830;6.914;2023-05-17T02:15:54;7.93;;;2.70;;
52724;SDS011;38621;52.830;6.914;2023-05-17T02:18:23;8.32;;;2.97;;
52724;SDS011;38621;52.830;6.914;2023-05-17T02:20:50;8.80;;;2.05;;
52724;SDS011;38621;52.830;6.914;2023-05-17T02:23:16;12.35;;;2.40;;
52724;SDS011;38621;52.830;6.914;2023-05-17T02:25:42;8.40;;;2.00;;
52724;SDS011;38621;52.830;6.914;2023-05-17T02:28:07;13.95;;;2.53;;
52724;SDS011;38621;52.830;6.914;2023-05-17T02:30:34;9.95;;;2.40;;
52724;SDS011;38621;52.830;6.914;2023-05-17T02:33:04;10.52;;;2.40;;
52724;SDS011;38621;52.830;6.914;2023-05-17T02:35:30;8.48;;;2.13;;
52724;SDS011;38621;52.830;6.914;2023-05-17T02:37:56;8.30;;;2.30;;
52724;SDS011;38621;52.830;6.914;2023-05-17T02:40:22;9.25;;;2.75;;
52724;SDS011;38621;52.830;6.914;2023-05-17T02:42:47;6.85;;;2.13;;
52724;SDS011;38621;52.830;6.914;2023-05-17T02:45:13;12.68;;;2.28;;
52724;SDS011;38621;52.830;6.914;2023-05-17T02:47:39;8.27;;;2.55;;
52724;SDS011;38621;52.830;6.914;2023-05-17T02:50:05;10.27;;;2.25;;
52724;SDS011;38621;52.830;6.914;2023-05-17T02:52:31;9.73;;;2.78;;
52724;SDS011;38621;52.830;6.914;2023-05-17T02:54:56;9.75;;;2.25;;
52724;SDS011;38621;52.830;6.914;2023-05-17T02:57:22;6.78;;;1.95;;
52724;SDS011;38621;52.830;6.914;2023-05-17T02:59:48;10.48;;;3.40;;
52724;SDS011;38621;52.830;6.914;2023-05-17T03:02:14;9.82;;;2.97;;
52724;SDS011;38621;52.830;6.914;2023-05-17T03:04:40;10.65;;;2.17;;
52724;SDS011;38621;52.830;6.914;2023-05-17T03:07:05;10.43;;;2.50;;
52724;SDS011;38621;52.830;6.914;2023-05-17T03:09:31;10.27;;;2.35;;
52724;SDS011;38621;52.830;6.914;2023-05-17T03:11:57;8.85;;;2.35;;
52724;SDS011;38621;52.830;6.914;2023-05-17T03:14:23;6.53;;;1.80;;
52724;SDS011;38621;52.830;6.914;2023-05-17T03:16:48;10.65;;;2.40;;
52724;SDS011;38621;52.830;6.914;2023-05-17T03:19:14;10.40;;;2.58;;
52724;SDS011;38621;52.830;6.914;2023-05-17T03:21:40;7.63;;;2.45;;
52724;SDS011;38621;52.830;6.914;2023-05-17T03:24:06;10.35;;;2.28;;
52724;SDS011;38621;52.830;6.914;2023-05-17T03:26:34;8.43;;;2.05;;
52724;SDS011;38621;52.830;6.914;2023-05-17T03:29:00;10.63;;;3.65;;
52724;SDS011;38621;52.830;6.914;2023-05-17T03:31:26;9.13;;;1.85;;
52724;SDS011;38621;52.830;6.914;2023-05-17T03:33:51;8.15;;;2.17;;
52724;SDS011;38621;52.830;6.914;2023-05-17T03:36:17;9.93;;;2.22;;
52724;SDS011;38621;52.830;6.914;2023-05-17T03:38:43;7.30;;;2.30;;
52724;SDS011;38621;52.830;6.914;2023-05-17T03:41:09;8.05;;;2.22;;
52724;SDS011;38621;52.830;6.914;2023-05-17T03:43:35;8.13;;;2.42;;
52724;SDS011;38621;52.830;6.914;2023-05-17T03:46:00;8.35;;;2.15;;
52724;SDS011;38621;52.830;6.914;2023-05-17T03:48:26;9.85;;;2.30;;
52724;SDS011;38621;52.830;6.914;2023-05-17T03:50:52;7.80;;;2.20;;
52724;SDS011;38621;52.830;6.914;2023-05-17T03:53:17;12.15;;;3.15;;
52724;SDS011;38621;52.830;6.914;2023-05-17T03:55:43;7.00;;;3.15;;
52724;SDS011;38621;52.830;6.914;2023-05-17T03:58:09;8.85;;;2.05;;
52724;SDS011;38621;52.830;6.914;2023-05-17T04:00:35;7.18;;;1.85;;
52724;SDS011;38621;52.830;6.914;2023-05-17T04:03:01;9.95;;;2.75;;
52724;SDS011;38621;52.830;6.914;2023-05-17T04:05:27;10.15;;;2.30;;
52724;SDS011;38621;52.830;6.914;2023-05-17T04:07:52;8.63;;;2.10;;
52724;SDS011;38621;52.830;6.914;2023-05-17T04:10:18;9.48;;;1.88;;
52724;SDS011;38621;52.830;6.914;2023-05-17T04:12:44;10.88;;;2.38;;
52724;SDS011;38621;52.830;6.914;2023-05-17T04:15:10;6.28;;;1.80;;
52724;SDS011;38621;52.830;6.914;2023-05-17T04:17:35;8.48;;;1.77;;
52724;SDS011;38621;52.830;6.914;2023-05-17T04:20:02;9.27;;;2.17;;
52724;SDS011;38621;52.830;6.914;2023-05-17T04:22:30;8.90;;;2.10;;
52724;SDS011;38621;52.830;6.914;2023-05-17T04:24:56;11.15;;;2.10;;
52724;SDS011;38621;52.830;6.914;2023-05-17T04:27:22;7.68;;;1.70;;
52724;SDS011;38621;52.830;6.914;2023-05-17T04:29:48;7.00;;;1.73;;
52724;SDS011;38621;52.830;6.914;2023-05-17T04:32:13;9.55;;;2.67;;
52724;SDS011;38621;52.830;6.914;2023-05-17T04:34:39;8.20;;;2.28;;
52724;SDS011;38621;52.830;6.914;2023-05-17T04:37:05;9.70;;;2.00;;
52724;SDS011;38621;52.830;6.914;2023-05-17T04:39:31;11.00;;;2.60;;
52724;SDS011;38621;52.830;6.914;2023-05-17T04:41:57;8.23;;;2.70;;
52724;SDS011;38621;52.830;6.914;2023-05-17T04:44:22;5.88;;;1.98;;
52724;SDS011;38621;52.830;6.914;2023-05-17T04:46:48;8.05;;;1.95;;
52724;SDS011;38621;52.830;6.914;2023-05-17T04:49:14;6.60;;;2.17;;
52724;SDS011;38621;52.830;6.914;2023-05-17T04:51:40;9.30;;;2.03;;
52724;SDS011;38621;52.830;6.914;2023-05-17T04:54:05;7.25;;;2.03;;
52724;SDS011;38621;52.830;6.914;2023-05-17T04:56:33;7.80;;;2.10;;
52724;SDS011;38621;52.830;6.914;2023-05-17T04:59:00;7.20;;;2.13;;
52724;SDS011;38621;52.830;6.914;2023-05-17T05:01:26;12.02;;;2.00;;
52724;SDS011;38621;52.830;6.914;2023-05-17T05:03:55;6.22;;;2.10;;
52724;SDS011;38621;52.830;6.914;2023-05-17T05:06:21;8.82;;;2.20;;
52724;SDS011;38621;52.830;6.914;2023-05-17T05:08:47;8.18;;;2.15;;
52724;SDS011;38621;52.830;6.914;2023-05-17T05:11:13;7.03;;;1.90;;
52724;SDS011;38621;52.830;6.914;2023-05-17T05:13:38;4.35;;;1.67;;
52724;SDS011;38621;52.830;6.914;2023-05-17T05:16:05;6.13;;;2.10;;
52724;SDS011;38621;52.830;6.914;2023-05-17T05:18:31;8.95;;;2.50;;
52724;SDS011;38621;52.830;6.914;2023-05-17T05:20:58;8.13;;;2.28;;
52724;SDS011;38621;52.830;6.914;2023-05-17T05:23:23;10.02;;;1.67;;
52724;SDS011;38621;52.830;6.914;2023-05-17T05:25:49;7.43;;;1.50;;
52724;SDS011;38621;52.830;6.914;2023-05-17T05:28:15;4.03;;;1.30;;
52724;SDS011;38621;52.830;6.914;2023-05-17T05:30:41;6.18;;;1.35;;
52724;SDS011;38621;52.830;6.914;2023-05-17T05:33:06;7.72;;;1.67;;
52724;SDS011;38621;52.830;6.914;2023-05-17T05:35:32;3.75;;;1.20;;
52724;SDS011;38621;52.830;6.914;2023-05-17T05:37:58;6.05;;;1.52;;
52724;SDS011;38621;52.830;6.914;2023-05-17T05:40:24;5.20;;;1.27;;
52724;SDS011;38621;52.830;6.914;2023-05-17T05:42:50;6.45;;;1.65;;
52724;SDS011;38621;52.830;6.914;2023-05-17T05:45:16;5.03;;;1.20;;
52724;SDS011;38621;52.830;6.914;2023-05-17T05:47:42;5.68;;;1.50;;
52724;SDS011;38621;52.830;6.914;2023-05-17T05:50:08;10.10;;;1.33;;
52724;SDS011;38621;52.830;6.914;2023-05-17T05:52:35;8.48;;;1.38;;
52724;SDS011;38621;52.830;6.914;2023-05-17T05:55:00;5.30;;;1.10;;
52724;SDS011;38621;52.830;6.914;2023-05-17T05:57:26;6.25;;;1.58;;
52724;SDS011;38621;52.830;6.914;2023-05-17T05:59:52;7.50;;;1.75;;
52724;SDS011;38621;52.830;6.914;2023-05-17T06:02:17;5.97;;;1.30;;
52724;SDS011;38621;52.830;6.914;2023-05-17T06:04:45;3.65;;;1.48;;
52724;SDS011;38621;52.830;6.914;2023-05-17T06:07:11;4.75;;;1.30;;
52724;SDS011;38621;52.830;6.914;2023-05-17T06:09:37;4.47;;;1.20;;
52724;SDS011;38621;52.830;6.914;2023-05-17T06:12:03;5.28;;;1.20;;
52724;SDS011;38621;52.830;6.914;2023-05-17T06:14:29;5.60;;;1.33;;
52724;SDS011;38621;52.830;6.914;2023-05-17T06:16:55;5.00;;;1.50;;
52724;SDS011;38621;52.830;6.914;2023-05-17T06:19:20;5.53;;;1.38;;
52724;SDS011;38621;52.830;6.914;2023-05-17T06:21:46;4.20;;;1.42;;
52724;SDS011;38621;52.830;6.914;2023-05-17T06:24:12;9.30;;;2.15;;
52724;SDS011;38621;52.830;6.914;2023-05-17T06:26:37;4.22;;;1.10;;
52724;SDS011;38621;52.830;6.914;2023-05-17T06:29:04;4.68;;;1.20;;
52724;SDS011;38621;52.830;6.914;2023-05-17T06:31:30;5.03;;;1.20;;
52724;SDS011;38621;52.830;6.914;2023-05-17T06:33:56;4.53;;;1.10;;
52724;SDS011;38621;52.830;6.914;2023-05-17T06:36:21;4.97;;;1.40;;
52724;SDS011;38621;52.830;6.914;2023-05-17T06:38:47;6.22;;;1.38;;
52724;SDS011;38621;52.830;6.914;2023-05-17T06:41:13;2.42;;;1.02;;
52724;SDS011;38621;52.830;6.914;2023-05-17T06:43:39;6.82;;;1.40;;
52724;SDS011;38621;52.830;6.914;2023-05-17T06:46:04;3.85;;;1.42;;
52724;SDS011;38621;52.830;6.914;2023-05-17T06:48:30;6.13;;;1.55;;
52724;SDS011;38621;52.830;6.914;2023-05-17T06:50:56;6.18;;;1.88;;
52724;SDS011;38621;52.830;6.914;2023-05-17T06:53:21;5.85;;;1.35;;
52724;SDS011;38621;52.830;6.914;2023-05-17T06:55:47;4.68;;;1.13;;
52724;SDS011;38621;52.830;6.914;2023-05-17T06:58:13;7.57;;;1.13;;
52724;SDS011;38621;52.830;6.914;2023-05-17T07:00:38;3.63;;;1.10;;
52724;SDS011;38621;52.830;6.914;2023-05-17T07:03:04;4.00;;;1.20;;
52724;SDS011;38621;52.830;6.914;2023-05-17T07:05:30;6.88;;;2.58;;
52724;SDS011;38621;52.830;6.914;2023-05-17T07:07:57;5.90;;;1.08;;
52724;SDS011;38621;52.830;6.914;2023-05-17T07:10:22;4.95;;;1.10;;
52724;SDS011;38621;52.830;6.914;2023-05-17T07:12:48;5.72;;;1.17;;
52724;SDS011;38621;52.830;6.914;2023-05-17T07:15:14;5.28;;;1.40;;
52724;SDS011;38621;52.830;6.914;2023-05-17T07:17:40;6.28;;;1.33;;
52724;SDS011;38621;52.830;6.914;2023-05-17T07:20:05;7.75;;;1.45;;
52724;SDS011;38621;52.830;6.914;2023-05-17T07:22:31;6.20;;;1.52;;
52724;SDS011;38621;52.830;6.914;2023-05-17T07:24:57;7.35;;;1.73;;
52724;SDS011;38621;52.830;6.914;2023-05-17T07:27:23;4.72;;;1.33;;
52724;SDS011;38621;52.830;6.914;2023-05-17T07:29:49;6.80;;;1.50;;
52724;SDS011;38621;52.830;6.914;2023-05-17T07:32:15;5.05;;;1.40;;
52724;SDS011;38621;52.830;6.914;2023-05-17T07:34:42;5.15;;;1.33;;
52724;SDS011;38621;52.830;6.914;2023-05-17T07:37:07;4.43;;;1.30;;
52724;SDS011;38621;52.830;6.914;2023-05-17T07:39:33;6.65;;;1.50;;
52724;SDS011;38621;52.830;6.914;2023-05-17T07:41:59;6.55;;;1.52;;
52724;SDS011;38621;52.830;6.914;2023-05-17T07:44:24;6.00;;;1.23;;
52724;SDS011;38621;52.830;6.914;2023-05-17T07:46:50;6.43;;;1.52;;
52724;SDS011;38621;52.830;6.914;2023-05-17T07:49:16;7.55;;;1.52;;
52724;SDS011;38621;52.830;6.914;2023-05-17T07:51:42;5.93;;;1.73;;
52724;SDS011;38621;52.830;6.914;2023-05-17T07:54:08;4.43;;;1.65;;
52724;SDS011;38621;52.830;6.914;2023-05-17T07:56:33;4.65;;;1.20;;
52724;SDS011;38621;52.830;6.914;2023-05-17T07:58:59;5.88;;;1.67;;
52724;SDS011;38621;52.830;6.914;2023-05-17T08:01:25;5.35;;;1.63;;
52724;SDS011;38621;52.830;6.914;2023-05-17T08:03:51;8.45;;;1.98;;
52724;SDS011;38621;52.830;6.914;2023-05-17T08:06:17;7.18;;;1.80;;
52724;SDS011;38621;52.830;6.914;2023-05-17T08:08:43;6.40;;;1.52;;
52724;SDS011;38621;52.830;6.914;2023-05-17T08:11:09;3.33;;;1.38;;
52724;SDS011;38621;52.830;6.914;2023-05-17T08:13:36;9.25;;;1.90;;
52724;SDS011;38621;52.830;6.914;2023-05-17T08:16:02;8.18;;;1.70;;
52724;SDS011;38621;52.830;6.914;2023-05-17T08:18:31;7.18;;;2.05;;
52724;SDS011;38621;52.830;6.914;2023-05-17T08:20:58;7.72;;;1.88;;
52724;SDS011;38621;52.830;6.914;2023-05-17T08:23:23;5.10;;;1.67;;
52724;SDS011;38621;52.830;6.914;2023-05-17T08:25:50;6.60;;;1.75;;
52724;SDS011;38621;52.830;6.914;2023-05-17T08:28:17;4.00;;;1.42;;
52724;SDS011;38621;52.830;6.914;2023-05-17T08:30:42;6.75;;;1.58;;
52724;SDS011;38621;52.830;6.914;2023-05-17T08:33:08;8.70;;;2.10;;
52724;SDS011;38621;52.830;6.914;2023-05-17T08:35:34;8.05;;;1.50;;
52724;SDS011;38621;52.830;6.914;2023-05-17T08:38:01;5.95;;;1.27;;
52724;SDS011;38621;52.830;6.914;2023-05-17T08:40:26;8.25;;;1.90;;
52724;SDS011;38621;52.830;6.914;2023-05-17T08:42:52;4.88;;;1.58;;
52724;SDS011;38621;52.830;6.914;2023-05-17T08:45:18;5.40;;;1.30;;
52724;SDS011;38621;52.830;6.914;2023-05-17T08:47:44;4.28;;;1.20;;
52724;SDS011;38621;52.830;6.914;2023-05-17T08:50:11;5.65;;;1.65;;
52724;SDS011;38621;52.830;6.914;2023-05-17T08:52:38;6.03;;;1.25;;
52724;SDS011;38621;52.830;6.914;2023-05-17T08:55:05;4.37;;;1.50;;
52724;SDS011;38621;52.830;6.914;2023-05-17T08:57:33;5.32;;;1.58;;
52724;SDS011;38621;52.830;6.914;2023-05-17T09:00:03;4.85;;;1.40;;
52724;SDS011;38621;52.830;6.914;2023-05-17T09:02:36;6.57;;;1.33;;
52724;SDS011;38621;52.830;6.914;2023-05-17T09:05:04;6.32;;;1.42;;
52724;SDS011;38621;52.830;6.914;2023-05-17T09:07:31;5.35;;;1.50;;
52724;SDS011;38621;52.830;6.914;2023-05-17T09:09:56;7.28;;;1.00;;
52724;SDS011;38621;52.830;6.914;2023-05-17T09:12:22;5.30;;;1.23;;
52724;SDS011;38621;52.830;6.914;2023-05-17T09:14:48;3.55;;;1.20;;
52724;SDS011;38621;52.830;6.914;2023-05-17T09:17:18;5.18;;;1.55;;
52724;SDS011;38621;52.830;6.914;2023-05-17T09:19:46;5.63;;;1.65;;
52724;SDS011;38621;52.830;6.914;2023-05-17T09:22:12;5.57;;;1.48;;
52724;SDS011;38621;52.830;6.914;2023-05-17T09:24:40;8.00;;;1.40;;
52724;SDS011;38621;52.830;6.914;2023-05-17T09:27:06;5.53;;;1.30;;
52724;SDS011;38621;52.830;6.914;2023-05-17T09:29:33;5.40;;;1.60;;
52724;SDS011;38621;52.830;6.914;2023-05-17T09:32:12;5.88;;;1.45;;
52724;SDS011;38621;52.830;6.914;2023-05-17T09:34:39;4.68;;;1.40;;
52724;SDS011;38621;52.830;6.914;2023-05-17T09:37:10;4.75;;;1.40;;
52724;SDS011;38621;52.830;6.914;2023-05-17T09:39:38;6.28;;;1.65;;
52724;SDS011;38621;52.830;6.914;2023-05-17T09:42:04;3.75;;;1.38;;
52724;SDS011;38621;52.830;6.914;2023-05-17T09:44:30;8.30;;;1.50;;
52724;SDS011;38621;52.830;6.914;2023-05-17T09:46:56;6.88;;;1.65;;
52724;SDS011;38621;52.830;6.914;2023-05-17T09:49:25;7.68;;;1.42;;
52724;SDS011;38621;52.830;6.914;2023-05-17T09:51:53;6.68;;;1.23;;
52724;SDS011;38621;52.830;6.914;2023-05-17T09:54:19;8.00;;;1.60;;
52724;SDS011;38621;52.830;6.914;2023-05-17T09:56:51;5.28;;;1.27;;
52724;SDS011;38621;52.830;6.914;2023-05-17T09:59:18;7.40;;;1.63;;
52724;SDS011;38621;52.830;6.914;2023-05-17T10:01:44;9.90;;;1.70;;
52724;SDS011;38621;52.830;6.914;2023-05-17T10:04:14;6.75;;;2.10;;
52724;SDS011;38621;52.830;6.914;2023-05-17T10:06:44;6.50;;;1.90;;
52724;SDS011;38621;52.830;6.914;2023-05-17T10:09:11;9.98;;;1.90;;
52724;SDS011;38621;52.830;6.914;2023-05-17T10:11:38;5.20;;;1.30;;
52724;SDS011;38621;52.830;6.914;2023-05-17T10:14:19;4.13;;;1.48;;
52724;SDS011;38621;52.830;6.914;2023-05-17T10:16:52;6.32;;;1.60;;
52724;SDS011;38621;52.830;6.914;2023-05-17T10:19:19;5.20;;;1.30;;
52724;SDS011;38621;52.830;6.914;2023-05-17T10:21:46;4.90;;;1.20;;
52724;SDS011;38621;52.830;6.914;2023-05-17T10:24:12;5.32;;;1.30;;
52724;SDS011;38621;52.830;6.914;2023-05-17T10:26:38;6.45;;;1.42;;
52724;SDS011;38621;52.830;6.914;2023-05-17T10:29:04;5.28;;;1.40;;
52724;SDS011;38621;52.830;6.914;2023-05-17T10:31:31;6.03;;;1.42;;
52724;SDS011;38621;52.830;6.914;2023-05-17T10:34:02;6.88;;;1.30;;
52724;SDS011;38621;52.830;6.914;2023-05-17T10:36:30;4.32;;;1.33;;
52724;SDS011;38621;52.830;6.914;2023-05-17T10:38:57;6.07;;;1.20;;
52724;SDS011;38621;52.830;6.914;2023-05-17T10:41:25;4.00;;;1.08;;
52724;SDS011;38621;52.830;6.914;2023-05-17T10:43:54;4.68;;;1.10;;
52724;SDS011;38621;52.830;6.914;2023-05-17T10:46:21;4.22;;;1.80;;
52724;SDS011;38621;52.830;6.914;2023-05-17T10:48:51;5.82;;;1.20;;
52724;SDS011;38621;52.830;6.914;2023-05-17T10:51:21;3.22;;;1.10;;
52724;SDS011;38621;52.830;6.914;2023-05-17T10:54:03;3.38;;;1.30;;
52724;SDS011;38621;52.830;6.914;2023-05-17T10:56:32;4.90;;;1.35;;
52724;SDS011;38621;52.830;6.914;2023-05-17T11:01:58;5.07;;;1.10;;
52724;SDS011;38621;52.830;6.914;2023-05-17T11:12:45;4.38;;;1.00;;
52724;SDS011;38621;52.830;6.914;2023-05-17T11:15:18;5.13;;;1.60;;
52724;SDS011;38621;52.830;6.914;2023-05-17T11:17:49;5.32;;;1.30;;
52724;SDS011;38621;52.830;6.914;2023-05-17T11:25:33;5.88;;;1.27;;
52724;SDS011;38621;52.830;6.914;2023-05-17T11:28:06;4.53;;;1.38;;
52724;SDS011;38621;52.830;6.914;2023-05-17T11:30:45;4.85;;;1.17;;
52724;SDS011;38621;52.830;6.914;2023-05-17T11:33:17;4.72;;;1.10;;
52724;SDS011;38621;52.830;6.914;2023-05-17T11:35:45;4.20;;;1.10;;
52724;SDS011;38621;52.830;6.914;2023-05-17T11:38:18;5.72;;;1.50;;
52724;SDS011;38621;52.830;6.914;2023-05-17T11:40:55;3.85;;;1.30;;
52724;SDS011;38621;52.830;6.914;2023-05-17T11:43:25;5.38;;;1.30;;
52724;SDS011;38621;52.830;6.914;2023-05-17T11:45:55;6.75;;;1.02;;
52724;SDS011;38621;52.830;6.914;2023-05-17T11:48:25;5.13;;;1.30;;
52724;SDS011;38621;52.830;6.914;2023-05-17T11:50:53;5.18;;;1.30;;
52724;SDS011;38621;52.830;6.914;2023-05-17T11:53:20;5.18;;;1.20;;
52724;SDS011;38621;52.830;6.914;2023-05-17T11:55:46;4.45;;;1.10;;
52724;SDS011;38621;52.830;6.914;2023-05-17T11:58:15;5.90;;;1.38;;
52724;SDS011;38621;52.830;6.914;2023-05-17T12:00:51;5.43;;;1.35;;
52724;SDS011;38621;52.830;6.914;2023-05-17T12:05:49;5.30;;;1.20;;
52724;SDS011;38621;52.830;6.914;2023-05-17T12:08:37;5.00;;;1.30;;
52724;SDS011;38621;52.830;6.914;2023-05-17T12:11:05;4.53;;;1.23;;
52724;SDS011;38621;52.830;6.914;2023-05-17T12:13:32;3.25;;;1.10;;
52724;SDS011;38621;52.830;6.914;2023-05-17T12:15:59;2.67;;;1.27;;
52724;SDS011;38621;52.830;6.914;2023-05-17T12:21:01;3.42;;;1.02;;
52724;SDS011;38621;52.830;6.914;2023-05-17T12:23:31;4.07;;;1.20;;
52724;SDS011;38621;52.830;6.914;2023-05-17T12:28:31;4.50;;;1.25;;
52724;SDS011;38621;52.830;6.914;2023-05-17T12:30:57;5.82;;;1.40;;
52724;SDS011;38621;52.830;6.914;2023-05-17T12:33:30;5.03;;;1.00;;
52724;SDS011;38621;52.830;6.914;2023-05-17T12:35:57;2.75;;;1.13;;
52724;SDS011;38621;52.830;6.914;2023-05-17T12:38:25;3.00;;;1.20;;
52724;SDS011;38621;52.830;6.914;2023-05-17T12:40:57;3.90;;;1.30;;
52724;SDS011;38621;52.830;6.914;2023-05-17T12:43:24;5.80;;;1.42;;
52724;SDS011;38621;52.830;6.914;2023-05-17T12:45:51;2.88;;;1.02;;
52724;SDS011;38621;52.830;6.914;2023-05-17T12:48:17;3.75;;;1.20;;
52724;SDS011;38621;52.830;6.914;2023-05-17T12:50:42;3.70;;;1.35;;
52724;SDS011;38621;52.830;6.914;2023-05-17T12:53:10;4.65;;;1.40;;
52724;SDS011;38621;52.830;6.914;2023-05-17T12:55:36;6.00;;;1.42;;
52724;SDS011;38621;52.830;6.914;2023-05-17T12:58:02;4.10;;;1.15;;
52724;SDS011;38621;52.830;6.914;2023-05-17T13:00:29;6.43;;;1.38;;
52724;SDS011;38621;52.830;6.914;2023-05-17T13:02:55;4.78;;;1.20;;
52724;SDS011;38621;52.830;6.914;2023-05-17T13:05:21;4.45;;;1.20;;
52724;SDS011;38621;52.830;6.914;2023-05-17T13:07:47;4.93;;;1.30;;
52724;SDS011;38621;52.830;6.914;2023-05-17T13:10:22;5.68;;;1.20;;
52724;SDS011;38621;52.830;6.914;2023-05-17T13:12:55;6.25;;;1.40;;
52724;SDS011;38621;52.830;6.914;2023-05-17T13:15:32;3.15;;;1.13;;
52724;SDS011;38621;52.830;6.914;2023-05-17T13:17:58;5.93;;;1.60;;
52724;SDS011;38621;52.830;6.914;2023-05-17T13:20:25;5.25;;;1.42;;
52724;SDS011;38621;52.830;6.914;2023-05-17T13:22:51;3.90;;;1.10;;
52724;SDS011;38621;52.830;6.914;2023-05-17T13:25:17;3.53;;;1.45;;
52724;SDS011;38621;52.830;6.914;2023-05-17T13:27:44;4.63;;;1.20;;
52724;SDS011;38621;52.830;6.914;2023-05-17T13:30:13;5.45;;;1.30;;
52724;SDS011;38621;52.830;6.914;2023-05-17T13:32:40;5.78;;;1.42;;
52724;SDS011;38621;52.830;6.914;2023-05-17T13:35:06;3.83;;;1.30;;
52724;SDS011;38621;52.830;6.914;2023-05-17T13:37:33;3.58;;;1.05;;
52724;SDS011;38621;52.830;6.914;2023-05-17T13:39:59;4.03;;;1.20;;
52724;SDS011;38621;52.830;6.914;2023-05-17T13:42:26;6.78;;;1.20;;
52724;SDS011;38621;52.830;6.914;2023-05-17T13:44:51;4.93;;;1.30;;
52724;SDS011;38621;52.830;6.914;2023-05-17T13:47:17;5.47;;;1.35;;
52724;SDS011;38621;52.830;6.914;2023-05-17T13:49:43;7.65;;;1.58;;
52724;SDS011;38621;52.830;6.914;2023-05-17T13:52:08;4.50;;;1.67;;
52724;SDS011;38621;52.830;6.914;2023-05-17T13:54:36;5.65;;;1.25;;
52724;SDS011;38621;52.830;6.914;2023-05-17T13:57:03;4.47;;;1.23;;
52724;SDS011;38621;52.830;6.914;2023-05-17T13:59:29;6.80;;;1.63;;
52724;SDS011;38621;52.830;6.914;2023-05-17T14:01:55;5.55;;;1.70;;
52724;SDS011;38621;52.830;6.914;2023-05-17T14:04:21;5.38;;;1.25;;
52724;SDS011;38621;52.830;6.914;2023-05-17T14:06:47;4.88;;;1.67;;
52724;SDS011;38621;52.830;6.914;2023-05-17T14:09:13;6.28;;;1.95;;
52724;SDS011;38621;52.830;6.914;2023-05-17T14:11:39;5.15;;;1.38;;
52724;SDS011;38621;52.830;6.914;2023-05-17T14:14:05;4.93;;;1.50;;
52724;SDS011;38621;52.830;6.914;2023-05-17T14:16:30;5.47;;;1.60;;
52724;SDS011;38621;52.830;6.914;2023-05-17T14:18:56;5.57;;;1.40;;
52724;SDS011;38621;52.830;6.914;2023-05-17T14:21:22;3.70;;;1.40;;
52724;SDS011;38621;52.830;6.914;2023-05-17T14:23:48;3.13;;;1.27;;
52724;SDS011;38621;52.830;6.914;2023-05-17T14:26:14;6.10;;;1.75;;
52724;SDS011;38621;52.830;6.914;2023-05-17T14:28:39;5.53;;;1.50;;
52724;SDS011;38621;52.830;6.914;2023-05-17T14:31:05;3.13;;;1.02;;
52724;SDS011;38621;52.830;6.914;2023-05-17T14:33:31;3.58;;;1.13;;
52724;SDS011;38621;52.830;6.914;2023-05-17T14:35:57;5.47;;;1.58;;
52724;SDS011;38621;52.830;6.914;2023-05-17T14:38:22;3.47;;;1.20;;
52724;SDS011;38621;52.830;6.914;2023-05-17T14:40:48;4.43;;;1.25;;
52724;SDS011;38621;52.830;6.914;2023-05-17T14:43:14;5.55;;;1.40;;
52724;SDS011;38621;52.830;6.914;2023-05-17T14:45:40;4.28;;;1.33;;
52724;SDS011;38621;52.830;6.914;2023-05-17T14:48:06;3.92;;;1.35;;
52724;SDS011;38621;52.830;6.914;2023-05-17T14:50:32;5.22;;;1.50;;
52724;SDS011;38621;52.830;6.914;2023-05-17T14:52:58;4.63;;;1.20;;
52724;SDS011;38621;52.830;6.914;2023-05-17T14:55:24;3.33;;;1.30;;
52724;SDS011;38621;52.830;6.914;2023-05-17T14:57:54;4.00;;;1.30;;
52724;SDS011;38621;52.830;6.914;2023-05-17T15:00:22;3.55;;;1.42;;
52724;SDS011;38621;52.830;6.914;2023-05-17T15:02:48;3.88;;;1.30;;
52724;SDS011;38621;52.830;6.914;2023-05-17T15:05:15;4.47;;;1.30;;
52724;SDS011;38621;52.830;6.914;2023-05-17T15:07:41;5.63;;;1.38;;
52724;SDS011;38621;52.830;6.914;2023-05-17T15:10:07;3.75;;;1.27;;
52724;SDS011;38621;52.830;6.914;2023-05-17T15:12:35;4.70;;;1.60;;
52724;SDS011;38621;52.830;6.914;2023-05-17T15:15:01;4.68;;;1.23;;
52724;SDS011;38621;52.830;6.914;2023-05-17T15:17:27;4.28;;;1.42;;
52724;SDS011;38621;52.830;6.914;2023-05-17T15:19:53;5.28;;;1.50;;
52724;SDS011;38621;52.830;6.914;2023-05-17T15:22:19;6.10;;;1.77;;